Strategic Endeavor — 9V2493 — position and weather

sailwx.info

Track history (hours):
 
Tides and Currents Weather Stations Pressure Air Temp Water Temp Dewpoint Dewpoint Depression Visibility Wind Speed Wind Dir Waves Ship Positions

Strategic Endeavor

Last reported at 2018-Jan-11 04:11 UTC. Time now 2018-Jan-18 07:40 UTC.
Position N 46°15' E 030°55'.

Length 178 m; draft 10.2 m.

Type: Cargo ship. MMSI: 564180000.

Date/timePositionNaut miles runAvg speedWind from/ knotsBaromVisibWave heightAir tempDewpointWater temp
2018-Jan-11 04:11N 46°15' E 030°55'411.8
2018-Jan-11 03:51N 46°19' E 030°55'412.2
2018-Jan-11 03:30N 46°23' E 030°55'612.1
2018-Jan-11 03:00N 46°30' E 030°55'510.1
2018-Jan-11 02:30N 46°33' E 031°00'5 9.5
2018-Jan-11 01:56N 46°35' E 031°07'711.1
2018-Jan-11 01:18N 46°35' E 031°18'9 8.7
2018-Jan-11 00:17N 46°35' E 031°31'3 7.8
2018-Jan-10 23:57N 46°35' E 031°34'4 8.3
2018-Jan-10 23:30N 46°36' E 031°40'4 8.3
2018-Jan-10 23:00N 46°36' E 031°46'4 8.0
2018-Jan-10 22:27N 46°37' E 031°52'3 7.8
2018-Jan-10 22:00N 46°39' E 031°56'4 8.3
2018-Jan-10 21:30N 46°43' E 031°56'4 7.6
2018-Jan-10 21:00N 46°47' E 031°53'4 8.1
2018-Jan-10 20:30N 46°50' E 031°56'4 8.8
2018-Jan-10 20:00N 46°53' E 032°00'3 5.7
2018-Jan-10 19:30N 46°56' E 032°01'0 0.9
2018-Jan-10 19:00N 46°57' E 032°01'0 0.0
2018-Jan-10 18:30N 46°57' E 032°01'0 0.0
2018-Jan-10 18:00N 46°57' E 032°01'0 0.0
2018-Jan-10 17:30N 46°57' E 032°01'0 0.0
2018-Jan-10 17:00N 46°57' E 032°01'0 0.0
2018-Jan-10 16:30N 46°57' E 032°01'0 0.0
2018-Jan-10 16:00N 46°57' E 032°01'0 0.0
2018-Jan-10 15:30N 46°57' E 032°01'0 0.0
2018-Jan-10 15:00N 46°57' E 032°01'0 0.0
2018-Jan-10 14:30N 46°57' E 032°01'0 0.0
2018-Jan-10 14:00N 46°57' E 032°01'0 0.0
2018-Jan-10 13:30N 46°57' E 032°01'0 0.0
2018-Jan-10 13:00N 46°57' E 032°01'0 0.0
2018-Jan-10 12:30N 46°57' E 032°01'0 0.0
2018-Jan-10 12:00N 46°57' E 032°01'0 0.0
2018-Jan-10 11:30N 46°57' E 032°01'0 0.0
2018-Jan-10 11:00N 46°57' E 032°01'0 0.0
2018-Jan-10 10:30N 46°57' E 032°01'0 0.0
2018-Jan-10 10:00N 46°57' E 032°01'0 0.0
2018-Jan-10 09:30N 46°57' E 032°01'0 0.0
2018-Jan-10 09:00N 46°57' E 032°01'0 0.0
2018-Jan-10 08:30N 46°57' E 032°01'0 0.0
2018-Jan-10 08:00N 46°57' E 032°01'0 0.0
2018-Jan-10 07:30N 46°57' E 032°01'0 0.0
2018-Jan-10 07:00N 46°57' E 032°01'0 0.0
2018-Jan-10 06:30N 46°57' E 032°01'0 0.0
2018-Jan-10 06:00N 46°57' E 032°01'0 0.0
2018-Jan-10 05:30N 46°57' E 032°01'0 0.0
2018-Jan-10 05:00N 46°57' E 032°01'0 0.0
2018-Jan-10 04:30N 46°57' E 032°01'0 0.0
2018-Jan-10 04:00N 46°57' E 032°01'0 0.0
2018-Jan-10 03:30N 46°57' E 032°01'0 0.0
2018-Jan-10 03:00N 46°57' E 032°01'0 0.0
2018-Jan-10 02:30N 46°57' E 032°01'0 0.0
2018-Jan-10 02:00N 46°57' E 032°01'0 0.0
2018-Jan-10 01:30N 46°57' E 032°01'0 0.0
2018-Jan-10 01:00N 46°57' E 032°01'0 0.0
2018-Jan-10 00:30N 46°57' E 032°01'0 0.0
2018-Jan-10 00:00N 46°57' E 032°01'0 0.0
2018-Jan-09 23:30N 46°57' E 032°01'0 0.0
2018-Jan-09 23:00N 46°57' E 032°01'0 0.0
2018-Jan-09 22:30N 46°57' E 032°01'0 0.0
2018-Jan-09 22:00N 46°57' E 032°01'0 0.0
2018-Jan-09 21:30N 46°57' E 032°01'0 0.0
2018-Jan-09 21:00N 46°57' E 032°01'0 0.0
2018-Jan-09 20:30N 46°57' E 032°01'0 0.0
2018-Jan-09 20:00N 46°57' E 032°01'0 0.0
2018-Jan-09 19:30N 46°57' E 032°01'0 0.0
2018-Jan-09 19:00N 46°57' E 032°01'0 0.0
2018-Jan-09 18:30N 46°57' E 032°01'0 0.0
2018-Jan-09 18:00N 46°57' E 032°01'0 0.0
2018-Jan-09 17:30N 46°57' E 032°01'0 0.0
2018-Jan-09 17:00N 46°57' E 032°01'0 0.0
2018-Jan-09 16:30N 46°57' E 032°01'0 0.0
2018-Jan-09 16:00N 46°57' E 032°01'0 0.0
2018-Jan-09 15:30N 46°57' E 032°01'0 0.0
2018-Jan-09 15:00N 46°57' E 032°01'0 0.0
2018-Jan-09 14:30N 46°57' E 032°01'0 0.0
2018-Jan-09 14:00N 46°57' E 032°01'0 0.0
2018-Jan-09 13:30N 46°57' E 032°01'0 0.0
2018-Jan-09 13:00N 46°57' E 032°01'0 0.0
2018-Jan-09 12:30N 46°57' E 032°01'0 0.0
2018-Jan-09 12:00N 46°57' E 032°01'0 0.0
2018-Jan-09 11:30N 46°57' E 032°01'0 0.0
2018-Jan-09 11:00N 46°57' E 032°01'0 0.0
2018-Jan-09 10:30N 46°57' E 032°01'0 0.0
2018-Jan-09 10:00N 46°57' E 032°01'0 0.0
2018-Jan-09 09:30N 46°57' E 032°01'0 0.0
2018-Jan-09 09:00N 46°57' E 032°01'0 0.0
2018-Jan-09 08:30N 46°57' E 032°01'0 0.0
2018-Jan-09 08:00N 46°57' E 032°01'0 0.0
2018-Jan-09 07:30N 46°57' E 032°01'0 0.0
2018-Jan-09 07:00N 46°57' E 032°01'0 0.0
2018-Jan-09 06:30N 46°57' E 032°01'0 0.0
2018-Jan-09 06:00N 46°57' E 032°01'0 0.0
2018-Jan-09 05:30N 46°57' E 032°01'0 0.0
2018-Jan-09 05:00N 46°57' E 032°01'0 0.0
2018-Jan-09 04:30N 46°57' E 032°01'0 0.0
2018-Jan-09 04:00N 46°57' E 032°01'0 0.0
2018-Jan-09 03:30N 46°57' E 032°01'0 0.0
2018-Jan-09 03:00N 46°57' E 032°01'0 0.0
2018-Jan-09 02:30N 46°57' E 032°01'0 0.0
2018-Jan-09 02:00N 46°57' E 032°01'0 0.0
2018-Jan-09 01:30N 46°57' E 032°01'0 0.0
2018-Jan-09 01:00N 46°57' E 032°01'0 0.0
2018-Jan-09 00:30N 46°57' E 032°01'0 0.0
2018-Jan-09 00:00N 46°57' E 032°01'0 0.0
2018-Jan-08 23:30N 46°57' E 032°01'0 0.0
2018-Jan-08 23:00N 46°57' E 032°01'0 0.0
2018-Jan-08 22:30N 46°57' E 032°01'0 0.0
2018-Jan-08 22:00N 46°57' E 032°01'0 0.0
2018-Jan-08 21:30N 46°57' E 032°01'0 0.0
2018-Jan-08 21:00N 46°57' E 032°01'0 0.0
2018-Jan-08 20:30N 46°57' E 032°01'0 0.0
2018-Jan-08 20:00N 46°57' E 032°01'0 0.0
2018-Jan-08 19:30N 46°57' E 032°01'0 0.0
2018-Jan-08 19:00N 46°57' E 032°01'0 0.0
2018-Jan-08 18:30N 46°57' E 032°01'0 0.0
2018-Jan-08 18:00N 46°57' E 032°01'0 0.0
2018-Jan-08 17:30N 46°57' E 032°01'0 0.0
2018-Jan-08 17:00N 46°57' E 032°01'0 0.0
2018-Jan-08 16:30N 46°57' E 032°01'0 0.0
2018-Jan-08 16:00N 46°57' E 032°01'0 0.0
2018-Jan-08 15:30N 46°57' E 032°01'0 0.0
2018-Jan-08 15:00N 46°57' E 032°01'0 0.0
2018-Jan-08 14:30N 46°57' E 032°01'0 0.0
2018-Jan-08 14:00N 46°57' E 032°01'0 0.0
2018-Jan-08 13:30N 46°57' E 032°01'0 0.0
2018-Jan-08 13:00N 46°57' E 032°01'0 0.0
2018-Jan-08 12:30N 46°57' E 032°01'0 0.0
2018-Jan-08 12:00N 46°57' E 032°01'0 0.0
2018-Jan-08 11:30N 46°57' E 032°01'0 0.0
2018-Jan-08 11:00N 46°57' E 032°01'0 0.0
2018-Jan-08 10:30N 46°57' E 032°01'0 0.0
2018-Jan-08 10:00N 46°57' E 032°01'0 0.0
2018-Jan-08 09:30N 46°57' E 032°01'0 0.0
2018-Jan-08 09:00N 46°57' E 032°01'0 0.0
2018-Jan-08 08:30N 46°57' E 032°01'0 0.0
2018-Jan-08 08:00N 46°57' E 032°01'0 0.0
2018-Jan-08 07:30N 46°57' E 032°01'0 0.0
2018-Jan-08 07:00N 46°57' E 032°01'0 0.0
2018-Jan-08 06:30N 46°57' E 032°01'0 0.0
2018-Jan-08 06:00N 46°57' E 032°01'0 0.0
2018-Jan-08 05:30N 46°57' E 032°01'0 0.0
2018-Jan-08 05:00N 46°57' E 032°01'0 0.0
2018-Jan-08 04:30N 46°57' E 032°01'0 0.0
2018-Jan-08 04:00N 46°57' E 032°01'0 0.0
2018-Jan-08 03:30N 46°57' E 032°01'0 0.0
2018-Jan-08 03:00N 46°57' E 032°01'0 0.0
2018-Jan-08 02:30N 46°57' E 032°01'0 0.0
2018-Jan-08 02:00N 46°57' E 032°01'0 0.0
2018-Jan-08 01:30N 46°57' E 032°01'0 0.0
2018-Jan-08 01:00N 46°57' E 032°01'0 0.0
2018-Jan-08 00:30N 46°57' E 032°01'0 0.0
2018-Jan-08 00:00N 46°57' E 032°01'0 0.0
2018-Jan-07 23:30N 46°57' E 032°01'0 0.0
2018-Jan-07 23:00N 46°57' E 032°01'0 0.0
2018-Jan-07 22:30N 46°57' E 032°01'0 0.0
2018-Jan-07 22:00N 46°57' E 032°01'0 0.0
2018-Jan-07 21:30N 46°57' E 032°01'0 0.0
2018-Jan-07 21:00N 46°57' E 032°01'0 0.0
2018-Jan-07 20:30N 46°57' E 032°01'0 0.0
2018-Jan-07 20:00N 46°57' E 032°01'0 0.0
2018-Jan-07 19:30N 46°57' E 032°01'0 0.0
2018-Jan-07 19:00N 46°57' E 032°01'0 0.0
2018-Jan-07 18:30N 46°57' E 032°01'0 0.0
2018-Jan-07 18:00N 46°57' E 032°01'0 0.0
2018-Jan-07 17:30N 46°57' E 032°01'0 0.0
2018-Jan-07 17:00N 46°57' E 032°01'0 0.0
2018-Jan-07 16:30N 46°57' E 032°01'0 0.0
2018-Jan-07 16:00N 46°57' E 032°01'0 0.0
2018-Jan-07 15:30N 46°57' E 032°01'0 0.0
2018-Jan-07 15:00N 46°57' E 032°01'0 0.0
2018-Jan-07 14:30N 46°57' E 032°01'0 0.0
2018-Jan-07 14:00N 46°57' E 032°01'0 0.0
2018-Jan-07 13:30N 46°57' E 032°01'0 0.0
2018-Jan-07 13:00N 46°57' E 032°01'0 0.0
2018-Jan-07 12:30N 46°57' E 032°01'0 0.0
2018-Jan-07 12:00N 46°57' E 032°01'0 0.0
2018-Jan-07 11:30N 46°57' E 032°01'0 0.0
2018-Jan-07 11:00N 46°57' E 032°01'0 0.0
2018-Jan-07 10:30N 46°57' E 032°01'0 0.0
2018-Jan-07 10:00N 46°57' E 032°01'0 0.0
2018-Jan-07 09:30N 46°57' E 032°01'0 0.0
2018-Jan-07 09:00N 46°57' E 032°01'0 0.0
2018-Jan-07 08:30N 46°57' E 032°01'0 0.0
2018-Jan-07 08:00N 46°57' E 032°01'0 0.0
2018-Jan-07 07:30N 46°57' E 032°01'0 0.0
2018-Jan-07 07:00N 46°57' E 032°01'0 0.0
2018-Jan-07 06:30N 46°57' E 032°01'0 0.0
2018-Jan-07 06:00N 46°57' E 032°01'0 0.0
2018-Jan-07 05:30N 46°57' E 032°01'0 0.0
2018-Jan-07 05:00N 46°57' E 032°01'0 0.0
2018-Jan-07 04:30N 46°57' E 032°01'0 0.0
2018-Jan-07 04:00N 46°57' E 032°01'0 0.0
2018-Jan-07 03:30N 46°57' E 032°01'0 0.0
2018-Jan-07 03:00N 46°57' E 032°01'0 0.0
2018-Jan-07 02:30N 46°57' E 032°01'0 0.0
2018-Jan-07 02:00N 46°57' E 032°01'0 0.0
2018-Jan-07 01:30N 46°57' E 032°01'0 0.0
2018-Jan-07 00:30N 46°57' E 032°01'0 0.0
2018-Jan-07 00:00N 46°57' E 032°01'0 0.0
2018-Jan-06 23:30N 46°57' E 032°01'0 0.0
2018-Jan-06 23:00N 46°57' E 032°01'0 0.0
2018-Jan-06 22:30N 46°57' E 032°01'0 0.0
2018-Jan-06 22:00N 46°57' E 032°01'0 0.0
2018-Jan-06 21:30N 46°57' E 032°01'0 0.0
2018-Jan-06 21:00N 46°57' E 032°01'0 0.0
2018-Jan-06 20:30N 46°57' E 032°01'0 0.0
2018-Jan-06 20:00N 46°57' E 032°01'0 0.0
2018-Jan-06 19:30N 46°57' E 032°01'0 0.0
2018-Jan-06 19:00N 46°57' E 032°01'0 0.0
2018-Jan-06 18:30N 46°57' E 032°01'0 0.0
2018-Jan-06 18:00N 46°57' E 032°01'0 0.0
2018-Jan-06 17:30N 46°57' E 032°01'0 0.0
2018-Jan-06 17:00N 46°57' E 032°01'0 0.0
2018-Jan-06 16:30N 46°57' E 032°01'0 0.0
2018-Jan-06 16:00N 46°57' E 032°01'0 0.0
2018-Jan-06 15:30N 46°57' E 032°01'0 0.0
2018-Jan-06 15:00N 46°57' E 032°01'0 0.0
2018-Jan-06 14:30N 46°57' E 032°01'0 0.0
2018-Jan-06 14:00N 46°57' E 032°01'0 0.0
2018-Jan-06 13:30N 46°57' E 032°01'0 0.0
2018-Jan-06 13:00N 46°57' E 032°01'0 0.0
2018-Jan-06 12:30N 46°57' E 032°01'0 0.0
2018-Jan-06 12:00N 46°57' E 032°01'0 0.0
2018-Jan-06 11:30N 46°57' E 032°01'0 0.0
2018-Jan-06 11:00N 46°57' E 032°01'0 0.0
2018-Jan-06 10:30N 46°57' E 032°01'0 0.0
2018-Jan-06 10:00N 46°57' E 032°01'0 0.0
2018-Jan-06 09:30N 46°57' E 032°01'0 0.0
2018-Jan-06 09:00N 46°57' E 032°01'0 0.0
2018-Jan-06 08:30N 46°57' E 032°01'0 0.0
2018-Jan-06 08:00N 46°57' E 032°01'0 0.0
2018-Jan-06 07:30N 46°57' E 032°01'0 0.0
2018-Jan-06 07:00N 46°57' E 032°01'0 0.0
2018-Jan-06 06:30N 46°57' E 032°01'0 0.0
2018-Jan-06 06:00N 46°57' E 032°01'0 0.0
2018-Jan-06 05:30N 46°57' E 032°01'0 0.0
2018-Jan-06 05:00N 46°57' E 032°01'0 0.0
2018-Jan-06 04:30N 46°57' E 032°01'0 0.0
2018-Jan-06 04:00N 46°57' E 032°01'0 0.0
2018-Jan-06 03:30N 46°57' E 032°01'0 0.0
2018-Jan-06 03:00N 46°57' E 032°01'0 0.0
2018-Jan-06 02:30N 46°57' E 032°01'0 0.0
2018-Jan-06 02:00N 46°57' E 032°01'0 0.0
2018-Jan-06 01:30N 46°57' E 032°01'0 0.0
2018-Jan-06 01:00N 46°57' E 032°01'0 0.0
2018-Jan-06 00:30N 46°57' E 032°01'0 0.0
2018-Jan-06 00:00N 46°57' E 032°01'0 0.0
2018-Jan-05 23:30N 46°57' E 032°01'0 0.0
2018-Jan-05 23:00N 46°57' E 032°01'0 0.0
2018-Jan-05 22:30N 46°57' E 032°01'0 0.0
2018-Jan-05 22:00N 46°57' E 032°01'0 0.0
2018-Jan-05 21:30N 46°57' E 032°01'0 0.0
2018-Jan-05 21:00N 46°57' E 032°01'0 0.0
2018-Jan-05 20:30N 46°57' E 032°01'0 0.0
2018-Jan-05 20:00N 46°57' E 032°01'0 0.0
2018-Jan-05 19:30N 46°57' E 032°01'0 0.0
2018-Jan-05 19:00N 46°57' E 032°01'0 0.0
2018-Jan-05 18:30N 46°57' E 032°01'0 0.0
2018-Jan-05 18:00N 46°57' E 032°01'0 0.0
2018-Jan-05 17:30N 46°57' E 032°01'0 0.0
2018-Jan-05 17:00N 46°57' E 032°01'0 0.0
2018-Jan-05 16:30N 46°57' E 032°01'0 0.0
2018-Jan-05 16:00N 46°57' E 032°01'0 0.0
2018-Jan-05 15:30N 46°57' E 032°01'0 0.0
2018-Jan-05 15:00N 46°57' E 032°01'0 0.0
2018-Jan-05 14:30N 46°57' E 032°01'0 0.0
2018-Jan-05 14:00N 46°57' E 032°01'0 0.0
2018-Jan-05 13:30N 46°57' E 032°01'0 0.0
2018-Jan-05 13:00N 46°57' E 032°01'0 0.0
2018-Jan-05 12:30N 46°57' E 032°01'0 0.0
2018-Jan-05 12:00N 46°57' E 032°01'0 0.0
2018-Jan-05 11:30N 46°57' E 032°01'0 0.0
2018-Jan-05 11:00N 46°57' E 032°01'0 0.0
2018-Jan-05 10:30N 46°57' E 032°01'0 0.0
2018-Jan-05 10:00N 46°57' E 032°01'0 0.0
2018-Jan-05 09:30N 46°57' E 032°01'0 0.0
2018-Jan-05 09:00N 46°57' E 032°01'0 0.0
2018-Jan-05 08:30N 46°57' E 032°01'0 0.0
2018-Jan-05 08:00N 46°57' E 032°01'0 0.0
2018-Jan-05 07:30N 46°57' E 032°01'0 0.0
2018-Jan-05 07:00N 46°57' E 032°01'0 0.0
2018-Jan-05 06:30N 46°57' E 032°01'0 0.0
2018-Jan-05 06:00N 46°57' E 032°01'0 0.0
2018-Jan-05 05:30N 46°57' E 032°01'0 0.0
2018-Jan-05 05:00N 46°57' E 032°01'0 0.0
2018-Jan-05 04:30N 46°57' E 032°01'0 0.0
2018-Jan-05 04:00N 46°57' E 032°01'0 0.0
2018-Jan-05 03:30N 46°57' E 032°01'0 0.0
2018-Jan-05 03:00N 46°57' E 032°01'0 0.0
2018-Jan-05 02:30N 46°57' E 032°01'0 0.0
2018-Jan-05 02:00N 46°57' E 032°01'0 0.0
2018-Jan-05 01:30N 46°57' E 032°01'0 0.0
2018-Jan-05 01:00N 46°57' E 032°01'0 0.0
2018-Jan-05 00:30N 46°57' E 032°01'0 0.0
2018-Jan-05 00:00N 46°57' E 032°01'0 0.0
2018-Jan-04 23:30N 46°57' E 032°01'0 0.0
2018-Jan-04 23:00N 46°57' E 032°01'0 0.0
2018-Jan-04 22:30N 46°57' E 032°01'0 0.0
2018-Jan-04 22:00N 46°57' E 032°01'0 0.0
2018-Jan-04 21:30N 46°57' E 032°01'0 0.0
2018-Jan-04 21:00N 46°57' E 032°01'0 0.0
2018-Jan-04 20:30N 46°57' E 032°01'0 0.0
2018-Jan-04 20:00N 46°57' E 032°01'0 0.0
2018-Jan-04 19:30N 46°57' E 032°01'0 0.0
2018-Jan-04 19:00N 46°57' E 032°01'0 0.0
2018-Jan-04 18:30N 46°57' E 032°01'0 0.0
2018-Jan-04 18:00N 46°57' E 032°01'0 0.0
2018-Jan-04 17:30N 46°57' E 032°01'0 0.0
2018-Jan-04 17:00N 46°57' E 032°01'0 0.0
2018-Jan-04 16:30N 46°57' E 032°01'0 0.0
2018-Jan-04 16:00N 46°57' E 032°01'0 0.0
2018-Jan-04 15:30N 46°57' E 032°01'0 0.0
2018-Jan-04 15:00N 46°57' E 032°01'0 0.0
2018-Jan-04 14:30N 46°57' E 032°01'0 0.0
2018-Jan-04 14:00N 46°57' E 032°01'0 0.0
2018-Jan-04 13:30N 46°57' E 032°01'0 0.0
2018-Jan-04 13:00N 46°57' E 032°01'0 0.0
2018-Jan-04 12:30N 46°57' E 032°01'0 0.0
2018-Jan-04 12:00N 46°57' E 032°01'0 0.0
2018-Jan-04 11:30N 46°57' E 032°01'0 0.0
2018-Jan-04 11:00N 46°57' E 032°01'0 0.0
2018-Jan-04 10:30N 46°57' E 032°01'0 0.0
2018-Jan-04 10:00N 46°57' E 032°01'0 0.0
2018-Jan-04 09:30N 46°57' E 032°01'0 0.0
2018-Jan-04 09:00N 46°57' E 032°01'0 0.0
2018-Jan-04 08:30N 46°57' E 032°01'0 0.0
2018-Jan-04 08:00N 46°57' E 032°01'0 0.0
2018-Jan-04 07:30N 46°57' E 032°01'0 0.0
2018-Jan-04 07:00N 46°57' E 032°01'0 0.0
2018-Jan-04 06:30N 46°57' E 032°01'0 0.0
2018-Jan-04 06:00N 46°57' E 032°01'0 0.0
2018-Jan-04 05:30N 46°57' E 032°01'0 0.0
2018-Jan-04 05:00N 46°57' E 032°01'0 0.0
2018-Jan-04 04:30N 46°57' E 032°01'0 0.0
2018-Jan-04 04:00N 46°57' E 032°01'0 0.0
2018-Jan-04 03:30N 46°57' E 032°01'0 0.0
2018-Jan-04 03:00N 46°57' E 032°01'0 0.0
2018-Jan-04 02:30N 46°57' E 032°01'0 0.0
2018-Jan-04 02:00N 46°57' E 032°01'0 0.0
2018-Jan-04 01:30N 46°57' E 032°01'0 0.0
2018-Jan-04 01:00N 46°57' E 032°01'0 0.0
2018-Jan-04 00:30N 46°57' E 032°01'0 0.0
2018-Jan-04 00:00N 46°57' E 032°01'0 0.0
2018-Jan-03 23:30N 46°57' E 032°01'0 0.0
2018-Jan-03 23:00N 46°57' E 032°01'0 0.0
2018-Jan-03 22:30N 46°57' E 032°01'0 0.0
2018-Jan-03 22:00N 46°57' E 032°01'0 0.0
2018-Jan-03 21:30N 46°57' E 032°01'0 0.0
2018-Jan-03 21:00N 46°57' E 032°01'0 0.0
2018-Jan-03 20:30N 46°57' E 032°01'0 0.0
2018-Jan-03 20:00N 46°57' E 032°01'0 0.0
2018-Jan-03 19:30N 46°57' E 032°01'0 0.0
2018-Jan-03 19:00N 46°57' E 032°01'0 0.0
2018-Jan-03 18:30N 46°57' E 032°01'0 0.0
2018-Jan-03 18:00N 46°57' E 032°01'0 0.0
2018-Jan-03 17:30N 46°57' E 032°01'0 0.0
2018-Jan-03 17:00N 46°57' E 032°01'0 0.0
2018-Jan-03 16:30N 46°57' E 032°01'0 0.0
2018-Jan-03 16:00N 46°57' E 032°01'0 0.0
2018-Jan-03 15:30N 46°57' E 032°01'0 0.0
2018-Jan-03 15:00N 46°57' E 032°01'0 0.0
2018-Jan-03 14:30N 46°57' E 032°01'0 0.0
2018-Jan-03 14:00N 46°57' E 032°01'0 0.0
2018-Jan-03 13:30N 46°57' E 032°01'0 0.0
2018-Jan-03 13:00N 46°57' E 032°01'0 0.0
2018-Jan-03 12:30N 46°57' E 032°01'0 0.0
2018-Jan-03 11:54N 46°57' E 032°01'0 0.0
2018-Jan-03 11:30N 46°57' E 032°01'0 0.0
2018-Jan-03 11:00N 46°57' E 032°01'0 0.0
2018-Jan-03 10:30N 46°57' E 032°01'0 0.0
2018-Jan-03 10:00N 46°57' E 032°01'0 0.0
2018-Jan-03 09:30N 46°57' E 032°01'0 0.0
2018-Jan-03 09:00N 46°57' E 032°01'0 0.0
2018-Jan-03 08:30N 46°57' E 032°01'0 0.0
2018-Jan-03 08:00N 46°57' E 032°01'0 0.0
2018-Jan-03 07:30N 46°57' E 032°01'0 0.0
2018-Jan-03 07:00N 46°57' E 032°01'0 0.0
2018-Jan-03 06:30N 46°57' E 032°01'0 0.0
2018-Jan-03 06:00N 46°57' E 032°01'0 0.0
2018-Jan-03 05:30N 46°57' E 032°01'0 0.0
2018-Jan-03 05:00N 46°57' E 032°01'0 0.0
2018-Jan-03 04:30N 46°57' E 032°01'0 0.0
2018-Jan-03 04:00N 46°57' E 032°01'0 0.0
2018-Jan-03 03:30N 46°57' E 032°01'0 0.0
2018-Jan-03 03:00N 46°57' E 032°01'0 0.0
2018-Jan-03 02:30N 46°57' E 032°01'0 0.0
2018-Jan-03 02:00N 46°57' E 032°01'0 0.0
2018-Jan-03 01:30N 46°57' E 032°01'0 0.0
2018-Jan-03 01:00N 46°57' E 032°01'0 0.0
2018-Jan-03 00:30N 46°57' E 032°01'0 0.0
2018-Jan-03 00:00N 46°57' E 032°01'0 0.0
2018-Jan-02 23:30N 46°57' E 032°01'0 0.0
2018-Jan-02 23:00N 46°57' E 032°01'0 0.0
2018-Jan-02 22:30N 46°57' E 032°01'0 0.0
2018-Jan-02 22:00N 46°57' E 032°01'0 0.0
2018-Jan-02 21:30N 46°57' E 032°01'0 0.0
2018-Jan-02 21:00N 46°57' E 032°01'0 0.0
2018-Jan-02 20:30N 46°57' E 032°01'0 0.0
2018-Jan-02 19:57N 46°57' E 032°01'0 0.0
2018-Jan-02 19:30N 46°57' E 032°01'0 0.0
2018-Jan-02 18:54N 46°57' E 032°01'0 0.0
2018-Jan-02 18:30N 46°57' E 032°01'0 0.0
2018-Jan-02 18:00N 46°57' E 032°01'0 0.0
2018-Jan-02 17:30N 46°57' E 032°01'0 0.0
2018-Jan-02 17:00N 46°57' E 032°01'0 0.0
2018-Jan-02 16:30N 46°57' E 032°01'0 0.0
2018-Jan-02 16:00N 46°57' E 032°01'0 0.0
2018-Jan-02 15:30N 46°57' E 032°01'0 0.0
2018-Jan-02 15:00N 46°57' E 032°01'0 0.0
2018-Jan-02 14:30N 46°57' E 032°01'0 0.0
2018-Jan-02 14:00N 46°57' E 032°01'0 0.0
2018-Jan-02 13:30N 46°57' E 032°01'0 0.0
2018-Jan-02 13:00N 46°57' E 032°01'0 0.0
2018-Jan-02 12:30N 46°57' E 032°01'0 0.0
2018-Jan-02 12:00N 46°57' E 032°01'0 0.0
2018-Jan-02 11:30N 46°57' E 032°01'0 0.0
2018-Jan-02 11:00N 46°57' E 032°01'0 0.0
2018-Jan-02 10:30N 46°57' E 032°01'0 0.0
2018-Jan-02 10:00N 46°57' E 032°01'0 0.0
2018-Jan-02 09:30N 46°57' E 032°01'0 0.0
2018-Jan-02 08:30N 46°57' E 032°01'0 0.0
2018-Jan-02 07:57N 46°57' E 032°01'0 0.0
2018-Jan-02 07:30N 46°57' E 032°01'0 0.0
2018-Jan-02 06:54N 46°57' E 032°01'0 0.0
2018-Jan-02 06:30N 46°57' E 032°01'0 0.0
2018-Jan-02 06:00N 46°57' E 032°01'0 0.0
2018-Jan-02 05:30N 46°57' E 032°01'0 0.0
2018-Jan-02 04:30N 46°57' E 032°01'0 0.0
2018-Jan-02 04:00N 46°57' E 032°01'0 0.0
2018-Jan-02 03:30N 46°57' E 032°01'0 0.0
2018-Jan-02 03:00N 46°57' E 032°01'0 0.0
2018-Jan-02 02:30N 46°57' E 032°01'0 0.0
2018-Jan-02 02:00N 46°57' E 032°01'0 0.0
2018-Jan-02 01:30N 46°57' E 032°01'0 0.0
2018-Jan-02 01:00N 46°57' E 032°01'0 0.0
2018-Jan-02 00:30N 46°57' E 032°01'0 0.0
2018-Jan-02 00:00N 46°57' E 032°01'0 0.0
2018-Jan-01 23:30N 46°57' E 032°01'0 0.0
2018-Jan-01 23:00N 46°57' E 032°01'0 0.0
2018-Jan-01 22:30N 46°57' E 032°01'0 0.0
2018-Jan-01 22:00N 46°57' E 032°01'0 0.0
2018-Jan-01 21:30N 46°57' E 032°01'0 0.0
2018-Jan-01 21:00N 46°57' E 032°01'0 0.0
2018-Jan-01 20:30N 46°57' E 032°01'0 0.0
2018-Jan-01 20:00N 46°57' E 032°01'0 0.0
2018-Jan-01 19:30N 46°57' E 032°01'0 0.0
2018-Jan-01 19:00N 46°57' E 032°01'0 0.0
2018-Jan-01 18:30N 46°57' E 032°01'0 0.0
2018-Jan-01 18:00N 46°57' E 032°01'0 0.0
2018-Jan-01 17:30N 46°57' E 032°01'0 0.0
2018-Jan-01 15:00N 46°57' E 032°01'0 0.0
2018-Jan-01 14:30N 46°57' E 032°01'0 0.0
2018-Jan-01 14:00N 46°57' E 032°01'0 0.0
2018-Jan-01 13:30N 46°57' E 032°01'0 0.0
2018-Jan-01 13:00N 46°57' E 032°01'0 0.0
2018-Jan-01 12:00N 46°57' E 032°01'0 0.0
2018-Jan-01 11:30N 46°57' E 032°01'0 0.0
2018-Jan-01 11:00N 46°57' E 032°01'0 0.0
2018-Jan-01 10:30N 46°57' E 032°01'0 0.0
2018-Jan-01 10:00N 46°57' E 032°01'0 0.0
2018-Jan-01 09:30N 46°57' E 032°01'0 0.0
2018-Jan-01 08:30N 46°57' E 032°01'0 0.0
2018-Jan-01 08:00N 46°57' E 032°01'0 0.0
2018-Jan-01 07:24N 46°57' E 032°01'0 0.0
2018-Jan-01 07:00N 46°57' E 032°01'0 0.0
2018-Jan-01 06:00N 46°57' E 032°01'0 0.0
2018-Jan-01 05:30N 46°57' E 032°01'0 0.0
2018-Jan-01 05:00N 46°57' E 032°01'  
Track history (hours):
 
Tides and Currents Weather Stations Pressure Air Temp Water Temp Dewpoint Dewpoint Depression Visibility Wind Speed Wind Dir Waves Ship Positions

Strategic Endeavor

Last reported at 2018-Jan-11 04:11 UTC. Time now 2018-Jan-18 07:41 UTC.
Position N 46°15' E 030°55'.

Length 178 m; draft 10.2 m.

Type: Cargo ship. MMSI: 564180000.

Date/timePositionNaut miles runAvg speedWind from/ knotsBaromVisibWave heightAir tempDewpointWater temp
2018-Jan-11 04:11N 46°15' E 030°55'411.8
2018-Jan-11 03:51N 46°19' E 030°55'412.2
2018-Jan-11 03:30N 46°23' E 030°55'612.1
2018-Jan-11 03:00N 46°30' E 030°55'510.1
2018-Jan-11 02:30N 46°33' E 031°00'5 9.5
2018-Jan-11 01:56N 46°35' E 031°07'711.1
2018-Jan-11 01:18N 46°35' E 031°18'9 8.7
2018-Jan-11 00:17N 46°35' E 031°31'3 7.8
2018-Jan-10 23:57N 46°35' E 031°34'4 8.3
2018-Jan-10 23:30N 46°36' E 031°40'4 8.3
2018-Jan-10 23:00N 46°36' E 031°46'4 8.0
2018-Jan-10 22:27N 46°37' E 031°52'3 7.8
2018-Jan-10 22:00N 46°39' E 031°56'4 8.3
2018-Jan-10 21:30N 46°43' E 031°56'4 7.6
2018-Jan-10 21:00N 46°47' E 031°53'4 8.1
2018-Jan-10 20:30N 46°50' E 031°56'4 8.8
2018-Jan-10 20:00N 46°53' E 032°00'3 5.7
2018-Jan-10 19:30N 46°56' E 032°01'0 0.9
2018-Jan-10 19:00N 46°57' E 032°01'0 0.0
2018-Jan-10 18:30N 46°57' E 032°01'0 0.0
2018-Jan-10 18:00N 46°57' E 032°01'0 0.0
2018-Jan-10 17:30N 46°57' E 032°01'0 0.0
2018-Jan-10 17:00N 46°57' E 032°01'0 0.0
2018-Jan-10 16:30N 46°57' E 032°01'0 0.0
2018-Jan-10 16:00N 46°57' E 032°01'0 0.0
2018-Jan-10 15:30N 46°57' E 032°01'0 0.0
2018-Jan-10 15:00N 46°57' E 032°01'0 0.0
2018-Jan-10 14:30N 46°57' E 032°01'0 0.0
2018-Jan-10 14:00N 46°57' E 032°01'0 0.0
2018-Jan-10 13:30N 46°57' E 032°01'0 0.0
2018-Jan-10 13:00N 46°57' E 032°01'0 0.0
2018-Jan-10 12:30N 46°57' E 032°01'0 0.0
2018-Jan-10 12:00N 46°57' E 032°01'0 0.0
2018-Jan-10 11:30N 46°57' E 032°01'0 0.0
2018-Jan-10 11:00N 46°57' E 032°01'0 0.0
2018-Jan-10 10:30N 46°57' E 032°01'0 0.0
2018-Jan-10 10:00N 46°57' E 032°01'0 0.0
2018-Jan-10 09:30N 46°57' E 032°01'0 0.0
2018-Jan-10 09:00N 46°57' E 032°01'0 0.0
2018-Jan-10 08:30N 46°57' E 032°01'0 0.0
2018-Jan-10 08:00N 46°57' E 032°01'0 0.0
2018-Jan-10 07:30N 46°57' E 032°01'0 0.0
2018-Jan-10 07:00N 46°57' E 032°01'0 0.0
2018-Jan-10 06:30N 46°57' E 032°01'0 0.0
2018-Jan-10 06:00N 46°57' E 032°01'0 0.0
2018-Jan-10 05:30N 46°57' E 032°01'0 0.0
2018-Jan-10 05:00N 46°57' E 032°01'0 0.0
2018-Jan-10 04:30N 46°57' E 032°01'0 0.0
2018-Jan-10 04:00N 46°57' E 032°01'0 0.0
2018-Jan-10 03:30N 46°57' E 032°01'0 0.0
2018-Jan-10 03:00N 46°57' E 032°01'0 0.0
2018-Jan-10 02:30N 46°57' E 032°01'0 0.0
2018-Jan-10 02:00N 46°57' E 032°01'0 0.0
2018-Jan-10 01:30N 46°57' E 032°01'0 0.0
2018-Jan-10 01:00N 46°57' E 032°01'0 0.0
2018-Jan-10 00:30N 46°57' E 032°01'0 0.0
2018-Jan-10 00:00N 46°57' E 032°01'0 0.0
2018-Jan-09 23:30N 46°57' E 032°01'0 0.0
2018-Jan-09 23:00N 46°57' E 032°01'0 0.0
2018-Jan-09 22:30N 46°57' E 032°01'0 0.0
2018-Jan-09 22:00N 46°57' E 032°01'0 0.0
2018-Jan-09 21:30N 46°57' E 032°01'0 0.0
2018-Jan-09 21:00N 46°57' E 032°01'0 0.0
2018-Jan-09 20:30N 46°57' E 032°01'0 0.0
2018-Jan-09 20:00N 46°57' E 032°01'0 0.0
2018-Jan-09 19:30N 46°57' E 032°01'0 0.0
2018-Jan-09 19:00N 46°57' E 032°01'0 0.0
2018-Jan-09 18:30N 46°57' E 032°01'0 0.0
2018-Jan-09 18:00N 46°57' E 032°01'0 0.0
2018-Jan-09 17:30N 46°57' E 032°01'0 0.0
2018-Jan-09 17:00N 46°57' E 032°01'0 0.0
2018-Jan-09 16:30N 46°57' E 032°01'0 0.0
2018-Jan-09 16:00N 46°57' E 032°01'0 0.0
2018-Jan-09 15:30N 46°57' E 032°01'0 0.0
2018-Jan-09 15:00N 46°57' E 032°01'0 0.0
2018-Jan-09 14:30N 46°57' E 032°01'0 0.0
2018-Jan-09 14:00N 46°57' E 032°01'0 0.0
2018-Jan-09 13:30N 46°57' E 032°01'0 0.0
2018-Jan-09 13:00N 46°57' E 032°01'0 0.0
2018-Jan-09 12:30N 46°57' E 032°01'0 0.0
2018-Jan-09 12:00N 46°57' E 032°01'0 0.0
2018-Jan-09 11:30N 46°57' E 032°01'0 0.0
2018-Jan-09 11:00N 46°57' E 032°01'0 0.0
2018-Jan-09 10:30N 46°57' E 032°01'0 0.0
2018-Jan-09 10:00N 46°57' E 032°01'0 0.0
2018-Jan-09 09:30N 46°57' E 032°01'0 0.0
2018-Jan-09 09:00N 46°57' E 032°01'0 0.0
2018-Jan-09 08:30N 46°57' E 032°01'0 0.0
2018-Jan-09 08:00N 46°57' E 032°01'0 0.0
2018-Jan-09 07:30N 46°57' E 032°01'0 0.0
2018-Jan-09 07:00N 46°57' E 032°01'0 0.0
2018-Jan-09 06:30N 46°57' E 032°01'0 0.0
2018-Jan-09 06:00N 46°57' E 032°01'0 0.0
2018-Jan-09 05:30N 46°57' E 032°01'0 0.0
2018-Jan-09 05:00N 46°57' E 032°01'0 0.0
2018-Jan-09 04:30N 46°57' E 032°01'0 0.0
2018-Jan-09 04:00N 46°57' E 032°01'0 0.0
2018-Jan-09 03:30N 46°57' E 032°01'0 0.0
2018-Jan-09 03:00N 46°57' E 032°01'0 0.0
2018-Jan-09 02:30N 46°57' E 032°01'0 0.0
2018-Jan-09 02:00N 46°57' E 032°01'0 0.0
2018-Jan-09 01:30N 46°57' E 032°01'0 0.0
2018-Jan-09 01:00N 46°57' E 032°01'0 0.0
2018-Jan-09 00:30N 46°57' E 032°01'0 0.0
2018-Jan-09 00:00N 46°57' E 032°01'0 0.0
2018-Jan-08 23:30N 46°57' E 032°01'0 0.0
2018-Jan-08 23:00N 46°57' E 032°01'0 0.0
2018-Jan-08 22:30N 46°57' E 032°01'0 0.0
2018-Jan-08 22:00N 46°57' E 032°01'0 0.0
2018-Jan-08 21:30N 46°57' E 032°01'0 0.0
2018-Jan-08 21:00N 46°57' E 032°01'0 0.0
2018-Jan-08 20:30N 46°57' E 032°01'0 0.0
2018-Jan-08 20:00N 46°57' E 032°01'0 0.0
2018-Jan-08 19:30N 46°57' E 032°01'0 0.0
2018-Jan-08 19:00N 46°57' E 032°01'0 0.0
2018-Jan-08 18:30N 46°57' E 032°01'0 0.0
2018-Jan-08 18:00N 46°57' E 032°01'0 0.0
2018-Jan-08 17:30N 46°57' E 032°01'0 0.0
2018-Jan-08 17:00N 46°57' E 032°01'0 0.0
2018-Jan-08 16:30N 46°57' E 032°01'0 0.0
2018-Jan-08 16:00N 46°57' E 032°01'0 0.0
2018-Jan-08 15:30N 46°57' E 032°01'0 0.0
2018-Jan-08 15:00N 46°57' E 032°01'0 0.0
2018-Jan-08 14:30N 46°57' E 032°01'0 0.0
2018-Jan-08 14:00N 46°57' E 032°01'0 0.0
2018-Jan-08 13:30N 46°57' E 032°01'0 0.0
2018-Jan-08 13:00N 46°57' E 032°01'0 0.0
2018-Jan-08 12:30N 46°57' E 032°01'0 0.0
2018-Jan-08 12:00N 46°57' E 032°01'0 0.0
2018-Jan-08 11:30N 46°57' E 032°01'0 0.0
2018-Jan-08 11:00N 46°57' E 032°01'0 0.0
2018-Jan-08 10:30N 46°57' E 032°01'0 0.0
2018-Jan-08 10:00N 46°57' E 032°01'0 0.0
2018-Jan-08 09:30N 46°57' E 032°01'0 0.0
2018-Jan-08 09:00N 46°57' E 032°01'0 0.0
2018-Jan-08 08:30N 46°57' E 032°01'0 0.0
2018-Jan-08 08:00N 46°57' E 032°01'0 0.0
2018-Jan-08 07:30N 46°57' E 032°01'0 0.0
2018-Jan-08 07:00N 46°57' E 032°01'0 0.0
2018-Jan-08 06:30N 46°57' E 032°01'0 0.0
2018-Jan-08 06:00N 46°57' E 032°01'0 0.0
2018-Jan-08 05:30N 46°57' E 032°01'0 0.0
2018-Jan-08 05:00N 46°57' E 032°01'0 0.0
2018-Jan-08 04:30N 46°57' E 032°01'0 0.0
2018-Jan-08 04:00N 46°57' E 032°01'0 0.0
2018-Jan-08 03:30N 46°57' E 032°01'0 0.0
2018-Jan-08 03:00N 46°57' E 032°01'0 0.0
2018-Jan-08 02:30N 46°57' E 032°01'0 0.0
2018-Jan-08 02:00N 46°57' E 032°01'0 0.0
2018-Jan-08 01:30N 46°57' E 032°01'0 0.0
2018-Jan-08 01:00N 46°57' E 032°01'0 0.0
2018-Jan-08 00:30N 46°57' E 032°01'0 0.0
2018-Jan-08 00:00N 46°57' E 032°01'0 0.0
2018-Jan-07 23:30N 46°57' E 032°01'0 0.0
2018-Jan-07 23:00N 46°57' E 032°01'0 0.0
2018-Jan-07 22:30N 46°57' E 032°01'0 0.0
2018-Jan-07 22:00N 46°57' E 032°01'0 0.0
2018-Jan-07 21:30N 46°57' E 032°01'0 0.0
2018-Jan-07 21:00N 46°57' E 032°01'0 0.0
2018-Jan-07 20:30N 46°57' E 032°01'0 0.0
2018-Jan-07 20:00N 46°57' E 032°01'0 0.0
2018-Jan-07 19:30N 46°57' E 032°01'0 0.0
2018-Jan-07 19:00N 46°57' E 032°01'0 0.0
2018-Jan-07 18:30N 46°57' E 032°01'0 0.0
2018-Jan-07 18:00N 46°57' E 032°01'0 0.0
2018-Jan-07 17:30N 46°57' E 032°01'0 0.0
2018-Jan-07 17:00N 46°57' E 032°01'0 0.0
2018-Jan-07 16:30N 46°57' E 032°01'0 0.0
2018-Jan-07 16:00N 46°57' E 032°01'0 0.0
2018-Jan-07 15:30N 46°57' E 032°01'0 0.0
2018-Jan-07 15:00N 46°57' E 032°01'0 0.0
2018-Jan-07 14:30N 46°57' E 032°01'0 0.0
2018-Jan-07 14:00N 46°57' E 032°01'0 0.0
2018-Jan-07 13:30N 46°57' E 032°01'0 0.0
2018-Jan-07 13:00N 46°57' E 032°01'0 0.0
2018-Jan-07 12:30N 46°57' E 032°01'0 0.0
2018-Jan-07 12:00N 46°57' E 032°01'0 0.0
2018-Jan-07 11:30N 46°57' E 032°01'0 0.0
2018-Jan-07 11:00N 46°57' E 032°01'0 0.0
2018-Jan-07 10:30N 46°57' E 032°01'0 0.0
2018-Jan-07 10:00N 46°57' E 032°01'0 0.0
2018-Jan-07 09:30N 46°57' E 032°01'0 0.0
2018-Jan-07 09:00N 46°57' E 032°01'0 0.0
2018-Jan-07 08:30N 46°57' E 032°01'0 0.0
2018-Jan-07 08:00N 46°57' E 032°01'0 0.0
2018-Jan-07 07:30N 46°57' E 032°01'0 0.0
2018-Jan-07 07:00N 46°57' E 032°01'0 0.0
2018-Jan-07 06:30N 46°57' E 032°01'0 0.0
2018-Jan-07 06:00N 46°57' E 032°01'0 0.0
2018-Jan-07 05:30N 46°57' E 032°01'0 0.0
2018-Jan-07 05:00N 46°57' E 032°01'0 0.0
2018-Jan-07 04:30N 46°57' E 032°01'0 0.0
2018-Jan-07 04:00N 46°57' E 032°01'0 0.0
2018-Jan-07 03:30N 46°57' E 032°01'0 0.0
2018-Jan-07 03:00N 46°57' E 032°01'0 0.0
2018-Jan-07 02:30N 46°57' E 032°01'0 0.0
2018-Jan-07 02:00N 46°57' E 032°01'0 0.0
2018-Jan-07 01:30N 46°57' E 032°01'0 0.0
2018-Jan-07 00:30N 46°57' E 032°01'0 0.0
2018-Jan-07 00:00N 46°57' E 032°01'0 0.0
2018-Jan-06 23:30N 46°57' E 032°01'0 0.0
2018-Jan-06 23:00N 46°57' E 032°01'0 0.0
2018-Jan-06 22:30N 46°57' E 032°01'0 0.0
2018-Jan-06 22:00N 46°57' E 032°01'0 0.0
2018-Jan-06 21:30N 46°57' E 032°01'0 0.0
2018-Jan-06 21:00N 46°57' E 032°01'0 0.0
2018-Jan-06 20:30N 46°57' E 032°01'0 0.0
2018-Jan-06 20:00N 46°57' E 032°01'0 0.0
2018-Jan-06 19:30N 46°57' E 032°01'0 0.0
2018-Jan-06 19:00N 46°57' E 032°01'0 0.0
2018-Jan-06 18:30N 46°57' E 032°01'0 0.0
2018-Jan-06 18:00N 46°57' E 032°01'0 0.0
2018-Jan-06 17:30N 46°57' E 032°01'0 0.0
2018-Jan-06 17:00N 46°57' E 032°01'0 0.0
2018-Jan-06 16:30N 46°57' E 032°01'0 0.0
2018-Jan-06 16:00N 46°57' E 032°01'0 0.0
2018-Jan-06 15:30N 46°57' E 032°01'0 0.0
2018-Jan-06 15:00N 46°57' E 032°01'0 0.0
2018-Jan-06 14:30N 46°57' E 032°01'0 0.0
2018-Jan-06 14:00N 46°57' E 032°01'0 0.0
2018-Jan-06 13:30N 46°57' E 032°01'0 0.0
2018-Jan-06 13:00N 46°57' E 032°01'0 0.0
2018-Jan-06 12:30N 46°57' E 032°01'0 0.0
2018-Jan-06 12:00N 46°57' E 032°01'0 0.0
2018-Jan-06 11:30N 46°57' E 032°01'0 0.0
2018-Jan-06 11:00N 46°57' E 032°01'0 0.0
2018-Jan-06 10:30N 46°57' E 032°01'0 0.0
2018-Jan-06 10:00N 46°57' E 032°01'0 0.0
2018-Jan-06 09:30N 46°57' E 032°01'0 0.0
2018-Jan-06 09:00N 46°57' E 032°01'0 0.0
2018-Jan-06 08:30N 46°57' E 032°01'0 0.0
2018-Jan-06 08:00N 46°57' E 032°01'0 0.0
2018-Jan-06 07:30N 46°57' E 032°01'0 0.0
2018-Jan-06 07:00N 46°57' E 032°01'0 0.0
2018-Jan-06 06:30N 46°57' E 032°01'0 0.0
2018-Jan-06 06:00N 46°57' E 032°01'0 0.0
2018-Jan-06 05:30N 46°57' E 032°01'0 0.0
2018-Jan-06 05:00N 46°57' E 032°01'0 0.0
2018-Jan-06 04:30N 46°57' E 032°01'0 0.0
2018-Jan-06 04:00N 46°57' E 032°01'0 0.0
2018-Jan-06 03:30N 46°57' E 032°01'0 0.0
2018-Jan-06 03:00N 46°57' E 032°01'0 0.0
2018-Jan-06 02:30N 46°57' E 032°01'0 0.0
2018-Jan-06 02:00N 46°57' E 032°01'0 0.0
2018-Jan-06 01:30N 46°57' E 032°01'0 0.0
2018-Jan-06 01:00N 46°57' E 032°01'0 0.0
2018-Jan-06 00:30N 46°57' E 032°01'0 0.0
2018-Jan-06 00:00N 46°57' E 032°01'0 0.0
2018-Jan-05 23:30N 46°57' E 032°01'0 0.0
2018-Jan-05 23:00N 46°57' E 032°01'0 0.0
2018-Jan-05 22:30N 46°57' E 032°01'0 0.0
2018-Jan-05 22:00N 46°57' E 032°01'0 0.0
2018-Jan-05 21:30N 46°57' E 032°01'0 0.0
2018-Jan-05 21:00N 46°57' E 032°01'0 0.0
2018-Jan-05 20:30N 46°57' E 032°01'0 0.0
2018-Jan-05 20:00N 46°57' E 032°01'0 0.0
2018-Jan-05 19:30N 46°57' E 032°01'0 0.0
2018-Jan-05 19:00N 46°57' E 032°01'0 0.0
2018-Jan-05 18:30N 46°57' E 032°01'0 0.0
2018-Jan-05 18:00N 46°57' E 032°01'0 0.0
2018-Jan-05 17:30N 46°57' E 032°01'0 0.0
2018-Jan-05 17:00N 46°57' E 032°01'0 0.0
2018-Jan-05 16:30N 46°57' E 032°01'0 0.0
2018-Jan-05 16:00N 46°57' E 032°01'0 0.0
2018-Jan-05 15:30N 46°57' E 032°01'0 0.0
2018-Jan-05 15:00N 46°57' E 032°01'0 0.0
2018-Jan-05 14:30N 46°57' E 032°01'0 0.0
2018-Jan-05 14:00N 46°57' E 032°01'0 0.0
2018-Jan-05 13:30N 46°57' E 032°01'0 0.0
2018-Jan-05 13:00N 46°57' E 032°01'0 0.0
2018-Jan-05 12:30N 46°57' E 032°01'0 0.0
2018-Jan-05 12:00N 46°57' E 032°01'0 0.0
2018-Jan-05 11:30N 46°57' E 032°01'0 0.0
2018-Jan-05 11:00N 46°57' E 032°01'0 0.0
2018-Jan-05 10:30N 46°57' E 032°01'0 0.0
2018-Jan-05 10:00N 46°57' E 032°01'0 0.0
2018-Jan-05 09:30N 46°57' E 032°01'0 0.0
2018-Jan-05 09:00N 46°57' E 032°01'0 0.0
2018-Jan-05 08:30N 46°57' E 032°01'0 0.0
2018-Jan-05 08:00N 46°57' E 032°01'0 0.0
2018-Jan-05 07:30N 46°57' E 032°01'0 0.0
2018-Jan-05 07:00N 46°57' E 032°01'0 0.0
2018-Jan-05 06:30N 46°57' E 032°01'0 0.0
2018-Jan-05 06:00N 46°57' E 032°01'0 0.0
2018-Jan-05 05:30N 46°57' E 032°01'0 0.0
2018-Jan-05 05:00N 46°57' E 032°01'0 0.0
2018-Jan-05 04:30N 46°57' E 032°01'0 0.0
2018-Jan-05 04:00N 46°57' E 032°01'0 0.0
2018-Jan-05 03:30N 46°57' E 032°01'0 0.0
2018-Jan-05 03:00N 46°57' E 032°01'0 0.0
2018-Jan-05 02:30N 46°57' E 032°01'0 0.0
2018-Jan-05 02:00N 46°57' E 032°01'0 0.0
2018-Jan-05 01:30N 46°57' E 032°01'0 0.0
2018-Jan-05 01:00N 46°57' E 032°01'0 0.0
2018-Jan-05 00:30N 46°57' E 032°01'0 0.0
2018-Jan-05 00:00N 46°57' E 032°01'0 0.0
2018-Jan-04 23:30N 46°57' E 032°01'0 0.0
2018-Jan-04 23:00N 46°57' E 032°01'0 0.0
2018-Jan-04 22:30N 46°57' E 032°01'0 0.0
2018-Jan-04 22:00N 46°57' E 032°01'0 0.0
2018-Jan-04 21:30N 46°57' E 032°01'0 0.0
2018-Jan-04 21:00N 46°57' E 032°01'0 0.0
2018-Jan-04 20:30N 46°57' E 032°01'0 0.0
2018-Jan-04 20:00N 46°57' E 032°01'0 0.0
2018-Jan-04 19:30N 46°57' E 032°01'0 0.0
2018-Jan-04 19:00N 46°57' E 032°01'0 0.0
2018-Jan-04 18:30N 46°57' E 032°01'0 0.0
2018-Jan-04 18:00N 46°57' E 032°01'0 0.0
2018-Jan-04 17:30N 46°57' E 032°01'0 0.0
2018-Jan-04 17:00N 46°57' E 032°01'0 0.0
2018-Jan-04 16:30N 46°57' E 032°01'0 0.0
2018-Jan-04 16:00N 46°57' E 032°01'0 0.0
2018-Jan-04 15:30N 46°57' E 032°01'0 0.0
2018-Jan-04 15:00N 46°57' E 032°01'0 0.0
2018-Jan-04 14:30N 46°57' E 032°01'0 0.0
2018-Jan-04 14:00N 46°57' E 032°01'0 0.0
2018-Jan-04 13:30N 46°57' E 032°01'0 0.0
2018-Jan-04 13:00N 46°57' E 032°01'0 0.0
2018-Jan-04 12:30N 46°57' E 032°01'0 0.0
2018-Jan-04 12:00N 46°57' E 032°01'0 0.0
2018-Jan-04 11:30N 46°57' E 032°01'0 0.0
2018-Jan-04 11:00N 46°57' E 032°01'0 0.0
2018-Jan-04 10:30N 46°57' E 032°01'0 0.0
2018-Jan-04 10:00N 46°57' E 032°01'0 0.0
2018-Jan-04 09:30N 46°57' E 032°01'0 0.0
2018-Jan-04 09:00N 46°57' E 032°01'0 0.0
2018-Jan-04 08:30N 46°57' E 032°01'0 0.0
2018-Jan-04 08:00N 46°57' E 032°01'0 0.0
2018-Jan-04 07:30N 46°57' E 032°01'0 0.0
2018-Jan-04 07:00N 46°57' E 032°01'0 0.0
2018-Jan-04 06:30N 46°57' E 032°01'0 0.0
2018-Jan-04 06:00N 46°57' E 032°01'0 0.0
2018-Jan-04 05:30N 46°57' E 032°01'0 0.0
2018-Jan-04 05:00N 46°57' E 032°01'0 0.0
2018-Jan-04 04:30N 46°57' E 032°01'0 0.0
2018-Jan-04 04:00N 46°57' E 032°01'0 0.0
2018-Jan-04 03:30N 46°57' E 032°01'0 0.0
2018-Jan-04 03:00N 46°57' E 032°01'0 0.0
2018-Jan-04 02:30N 46°57' E 032°01'0 0.0
2018-Jan-04 02:00N 46°57' E 032°01'0 0.0
2018-Jan-04 01:30N 46°57' E 032°01'0 0.0
2018-Jan-04 01:00N 46°57' E 032°01'0 0.0
2018-Jan-04 00:30N 46°57' E 032°01'0 0.0
2018-Jan-04 00:00N 46°57' E 032°01'0 0.0
2018-Jan-03 23:30N 46°57' E 032°01'0 0.0
2018-Jan-03 23:00N 46°57' E 032°01'0 0.0
2018-Jan-03 22:30N 46°57' E 032°01'0 0.0
2018-Jan-03 22:00N 46°57' E 032°01'0 0.0
2018-Jan-03 21:30N 46°57' E 032°01'0 0.0
2018-Jan-03 21:00N 46°57' E 032°01'0 0.0
2018-Jan-03 20:30N 46°57' E 032°01'0 0.0
2018-Jan-03 20:00N 46°57' E 032°01'0 0.0
2018-Jan-03 19:30N 46°57' E 032°01'0 0.0
2018-Jan-03 19:00N 46°57' E 032°01'0 0.0
2018-Jan-03 18:30N 46°57' E 032°01'0 0.0
2018-Jan-03 18:00N 46°57' E 032°01'0 0.0
2018-Jan-03 17:30N 46°57' E 032°01'0 0.0
2018-Jan-03 17:00N 46°57' E 032°01'0 0.0
2018-Jan-03 16:30N 46°57' E 032°01'0 0.0
2018-Jan-03 16:00N 46°57' E 032°01'0 0.0
2018-Jan-03 15:30N 46°57' E 032°01'0 0.0
2018-Jan-03 15:00N 46°57' E 032°01'0 0.0
2018-Jan-03 14:30N 46°57' E 032°01'0 0.0
2018-Jan-03 14:00N 46°57' E 032°01'0 0.0
2018-Jan-03 13:30N 46°57' E 032°01'0 0.0
2018-Jan-03 13:00N 46°57' E 032°01'0 0.0
2018-Jan-03 12:30N 46°57' E 032°01'0 0.0
2018-Jan-03 11:54N 46°57' E 032°01'0 0.0
2018-Jan-03 11:30N 46°57' E 032°01'0 0.0
2018-Jan-03 11:00N 46°57' E 032°01'0 0.0
2018-Jan-03 10:30N 46°57' E 032°01'0 0.0
2018-Jan-03 10:00N 46°57' E 032°01'0 0.0
2018-Jan-03 09:30N 46°57' E 032°01'0 0.0
2018-Jan-03 09:00N 46°57' E 032°01'0 0.0
2018-Jan-03 08:30N 46°57' E 032°01'0 0.0
2018-Jan-03 08:00N 46°57' E 032°01'0 0.0
2018-Jan-03 07:30N 46°57' E 032°01'0 0.0
2018-Jan-03 07:00N 46°57' E 032°01'0 0.0
2018-Jan-03 06:30N 46°57' E 032°01'0 0.0
2018-Jan-03 06:00N 46°57' E 032°01'0 0.0
2018-Jan-03 05:30N 46°57' E 032°01'0 0.0
2018-Jan-03 05:00N 46°57' E 032°01'0 0.0
2018-Jan-03 04:30N 46°57' E 032°01'0 0.0
2018-Jan-03 04:00N 46°57' E 032°01'0 0.0
2018-Jan-03 03:30N 46°57' E 032°01'0 0.0
2018-Jan-03 03:00N 46°57' E 032°01'0 0.0
2018-Jan-03 02:30N 46°57' E 032°01'0 0.0
2018-Jan-03 02:00N 46°57' E 032°01'0 0.0
2018-Jan-03 01:30N 46°57' E 032°01'0 0.0
2018-Jan-03 01:00N 46°57' E 032°01'0 0.0
2018-Jan-03 00:30N 46°57' E 032°01'0 0.0
2018-Jan-03 00:00N 46°57' E 032°01'0 0.0
2018-Jan-02 23:30N 46°57' E 032°01'0 0.0
2018-Jan-02 23:00N 46°57' E 032°01'0 0.0
2018-Jan-02 22:30N 46°57' E 032°01'0 0.0
2018-Jan-02 22:00N 46°57' E 032°01'0 0.0
2018-Jan-02 21:30N 46°57' E 032°01'0 0.0
2018-Jan-02 21:00N 46°57' E 032°01'0 0.0
2018-Jan-02 20:30N 46°57' E 032°01'0 0.0
2018-Jan-02 19:57N 46°57' E 032°01'0 0.0
2018-Jan-02 19:30N 46°57' E 032°01'0 0.0
2018-Jan-02 18:54N 46°57' E 032°01'0 0.0
2018-Jan-02 18:30N 46°57' E 032°01'0 0.0
2018-Jan-02 18:00N 46°57' E 032°01'0 0.0
2018-Jan-02 17:30N 46°57' E 032°01'0 0.0
2018-Jan-02 17:00N 46°57' E 032°01'0 0.0
2018-Jan-02 16:30N 46°57' E 032°01'0 0.0
2018-Jan-02 16:00N 46°57' E 032°01'0 0.0
2018-Jan-02 15:30N 46°57' E 032°01'0 0.0
2018-Jan-02 15:00N 46°57' E 032°01'0 0.0
2018-Jan-02 14:30N 46°57' E 032°01'0 0.0
2018-Jan-02 14:00N 46°57' E 032°01'0 0.0
2018-Jan-02 13:30N 46°57' E 032°01'0 0.0
2018-Jan-02 13:00N 46°57' E 032°01'0 0.0
2018-Jan-02 12:30N 46°57' E 032°01'0 0.0
2018-Jan-02 12:00N 46°57' E 032°01'0 0.0
2018-Jan-02 11:30N 46°57' E 032°01'0 0.0
2018-Jan-02 11:00N 46°57' E 032°01'0 0.0
2018-Jan-02 10:30N 46°57' E 032°01'0 0.0
2018-Jan-02 10:00N 46°57' E 032°01'0 0.0
2018-Jan-02 09:30N 46°57' E 032°01'0 0.0
2018-Jan-02 08:30N 46°57' E 032°01'0 0.0
2018-Jan-02 07:57N 46°57' E 032°01'0 0.0
2018-Jan-02 07:30N 46°57' E 032°01'0 0.0
2018-Jan-02 06:54N 46°57' E 032°01'0 0.0
2018-Jan-02 06:30N 46°57' E 032°01'0 0.0
2018-Jan-02 06:00N 46°57' E 032°01'0 0.0
2018-Jan-02 05:30N 46°57' E 032°01'0 0.0
2018-Jan-02 04:30N 46°57' E 032°01'0 0.0
2018-Jan-02 04:00N 46°57' E 032°01'0 0.0
2018-Jan-02 03:30N 46°57' E 032°01'0 0.0
2018-Jan-02 03:00N 46°57' E 032°01'0 0.0
2018-Jan-02 02:30N 46°57' E 032°01'0 0.0
2018-Jan-02 02:00N 46°57' E 032°01'0 0.0
2018-Jan-02 01:30N 46°57' E 032°01'0 0.0
2018-Jan-02 01:00N 46°57' E 032°01'0 0.0
2018-Jan-02 00:30N 46°57' E 032°01'0 0.0
2018-Jan-02 00:00N 46°57' E 032°01'0 0.0
2018-Jan-01 23:30N 46°57' E 032°01'0 0.0
2018-Jan-01 23:00N 46°57' E 032°01'0 0.0
2018-Jan-01 22:30N 46°57' E 032°01'0 0.0
2018-Jan-01 22:00N 46°57' E 032°01'0 0.0
2018-Jan-01 21:30N 46°57' E 032°01'0 0.0
2018-Jan-01 21:00N 46°57' E 032°01'0 0.0
2018-Jan-01 20:30N 46°57' E 032°01'0 0.0
2018-Jan-01 20:00N 46°57' E 032°01'0 0.0
2018-Jan-01 19:30N 46°57' E 032°01'0 0.0
2018-Jan-01 19:00N 46°57' E 032°01'0 0.0
2018-Jan-01 18:30N 46°57' E 032°01'0 0.0
2018-Jan-01 18:00N 46°57' E 032°01'0 0.0
2018-Jan-01 17:30N 46°57' E 032°01'0 0.0
2018-Jan-01 15:00N 46°57' E 032°01'0 0.0
2018-Jan-01 14:30N 46°57' E 032°01'0 0.0
2018-Jan-01 14:00N 46°57' E 032°01'0 0.0
2018-Jan-01 13:30N 46°57' E 032°01'0 0.0
2018-Jan-01 13:00N 46°57' E 032°01'0 0.0
2018-Jan-01 12:00N 46°57' E 032°01'0 0.0
2018-Jan-01 11:30N 46°57' E 032°01'0 0.0
2018-Jan-01 11:00N 46°57' E 032°01'0 0.0
2018-Jan-01 10:30N 46°57' E 032°01'0 0.0
2018-Jan-01 10:00N 46°57' E 032°01'0 0.0
2018-Jan-01 09:30N 46°57' E 032°01'0 0.0
2018-Jan-01 08:30N 46°57' E 032°01'0 0.0
2018-Jan-01 08:00N 46°57' E 032°01'0 0.0
2018-Jan-01 07:24N 46°57' E 032°01'0 0.0
2018-Jan-01 07:00N 46°57' E 032°01'0 0.0
2018-Jan-01 06:00N 46°57' E 032°01'0 0.0
2018-Jan-01 05:30N 46°57' E 032°01'0 0.0
2018-Jan-01 05:00N 46°57' E 032°01'  

Dump ship's entire track history